createdAt,value
2022-09-28T00:06:47.423Z,100.00
2022-09-28T00:16:52.506Z,100.00
2022-09-28T00:26:56.325Z,100.00
2022-09-28T00:36:58.494Z,100.00
2022-09-28T00:47:18.286Z,100.00
2022-09-28T00:57:22.977Z,100.00
2022-09-28T01:07:25.964Z,100.00
2022-09-28T01:18:22.369Z,100.00
2022-09-28T01:28:27.360Z,100.00
2022-09-28T01:38:34.539Z,100.00
2022-09-28T01:48:43.762Z,100.00
2022-09-28T01:58:51.926Z,100.00
2022-09-28T02:08:59.546Z,100.00
2022-09-28T02:19:04.388Z,100.00
2022-09-28T02:29:06.085Z,100.00
2022-09-28T02:39:17.998Z,100.00
2022-09-28T02:49:50.019Z,100.00
2022-09-28T03:00:00.351Z,100.00
2022-09-28T03:10:08.860Z,100.00
2022-09-28T03:20:12.064Z,100.00
2022-09-28T03:30:13.566Z,100.00
2022-09-28T03:40:15.611Z,100.00
2022-09-28T03:50:17.481Z,100.00
2022-09-28T04:00:19.415Z,100.00
2022-09-28T04:10:21.068Z,100.00
2022-09-28T04:20:22.847Z,100.00
2022-09-28T04:30:24.950Z,100.00
2022-09-28T04:40:26.598Z,100.00
2022-09-28T04:50:28.410Z,100.00
2022-09-28T05:00:33.181Z,100.00
2022-09-28T05:10:42.251Z,100.00
2022-09-28T05:20:43.944Z,100.00
2022-09-28T05:30:45.686Z,100.00
2022-09-28T05:40:48.928Z,100.00
2022-09-28T05:50:52.501Z,100.00
2022-09-28T06:00:56.409Z,100.00
2022-09-28T06:11:03.013Z,100.00
2022-09-28T06:21:05.976Z,100.00
2022-09-28T06:31:08.195Z,100.00
2022-09-28T06:41:11.899Z,100.00
2022-09-28T06:51:14.666Z,95.76
2022-09-28T07:01:17.362Z,93.28
2022-09-28T07:11:27.354Z,88.01
2022-09-28T07:21:30.646Z,82.07
2022-09-28T07:31:33.817Z,81.43
2022-09-28T07:41:36.260Z,81.51
2022-09-28T07:51:37.883Z,80.17
2022-09-28T08:01:39.634Z,77.05
2022-09-28T08:11:43.995Z,82.99
2022-09-28T08:21:45.625Z,77.05
2022-09-28T08:31:48.609Z,73.85
2022-09-28T08:42:00.123Z,73.71
2022-09-28T08:52:17.240Z,70.93
2022-09-28T09:02:34.183Z,67.29
2022-09-28T09:13:00.831Z,65.78
2022-09-28T09:23:15.437Z,63.09
2022-09-28T09:33:39.773Z,60.70
2022-09-28T09:44:06.014Z,60.74
2022-09-28T09:54:20.147Z,57.45
2022-09-28T10:04:27.981Z,53.36
2022-09-28T10:14:31.697Z,57.60
2022-09-28T10:24:45.291Z,63.26
2022-09-28T10:34:50.276Z,57.13
2022-09-28T10:44:59.499Z,51.61
2022-09-28T10:55:01.565Z,56.24
2022-09-28T11:05:06.684Z,54.09
2022-09-28T11:15:27.390Z,54.72
2022-09-28T11:25:31.418Z,43.39
2022-09-28T11:36:00.243Z,41.23
2022-09-28T11:46:10.850Z,36.53
2022-09-28T11:56:27.778Z,38.72
2022-09-28T12:06:41.040Z,36.34
2022-09-28T12:17:08.484Z,36.84
2022-09-28T12:27:18.245Z,32.43
2022-09-28T12:37:41.814Z,33.90
2022-09-28T12:47:57.419Z,30.56
2022-09-28T12:58:03.322Z,28.66
2022-09-28T13:08:42.472Z,30.27
2022-09-28T13:18:53.374Z,30.87
2022-09-28T13:29:04.460Z,28.95
2022-09-28T13:39:37.371Z,31.14
2022-09-28T13:49:40.360Z,33.42
2022-09-28T13:59:50.955Z,35.37
2022-09-28T14:10:21.127Z,33.95
2022-09-28T14:20:27.981Z,31.95
2022-09-28T14:30:41.866Z,38.54
2022-09-28T14:41:10.531Z,31.23
2022-09-28T14:51:42.459Z,33.65
2022-09-28T15:01:57.854Z,42.54
2022-09-28T15:12:21.745Z,47.64
2022-09-28T15:22:24.970Z,51.59
2022-09-28T15:32:31.844Z,54.48
2022-09-28T15:42:37.072Z,55.92
2022-09-28T15:53:17.534Z,57.49
2022-09-28T16:03:21.832Z,59.51
2022-09-28T16:13:25.066Z,62.33
2022-09-28T16:23:34.443Z,65.87
2022-09-28T16:33:54.227Z,67.44
2022-09-28T16:44:15.354Z,68.26
2022-09-28T16:54:43.186Z,67.02
2022-09-28T17:04:47.688Z,65.72
2022-09-28T17:14:49.577Z,65.19
2022-09-28T17:24:51.543Z,68.88
2022-09-28T17:35:06.467Z,79.37
2022-09-28T17:45:10.555Z,93.26
2022-09-28T17:55:16.307Z,100.00
2022-09-28T18:05:19.682Z,100.00
2022-09-28T18:15:22.734Z,100.00
2022-09-28T18:25:24.450Z,100.00
2022-09-28T18:35:26.115Z,100.00
2022-09-28T18:45:27.866Z,100.00
2022-09-28T18:55:30.577Z,100.00
2022-09-28T19:05:33.805Z,100.00
2022-09-28T19:15:35.511Z,100.00
2022-09-28T19:25:38.616Z,100.00
2022-09-28T19:35:41.634Z,100.00
2022-09-28T19:45:43.367Z,100.00
2022-09-28T19:55:51.167Z,100.00
2022-09-28T20:06:01.810Z,100.00
2022-09-28T20:16:09.314Z,100.00
2022-09-28T20:26:11.921Z,100.00
2022-09-28T20:36:16.398Z,100.00
2022-09-28T20:46:19.437Z,100.00
2022-09-28T20:56:22.298Z,100.00
2022-09-28T21:06:27.820Z,100.00
2022-09-28T21:16:31.695Z,100.00
2022-09-28T21:26:33.633Z,100.00
2022-09-28T21:36:35.297Z,100.00
2022-09-28T21:46:39.068Z,100.00
2022-09-28T21:56:40.815Z,100.00
2022-09-28T22:06:42.859Z,100.00
2022-09-28T22:16:47.941Z,100.00
2022-09-28T22:26:55.642Z,100.00
2022-09-28T22:37:03.268Z,100.00
2022-09-28T22:47:07.489Z,100.00
2022-09-28T22:57:09.100Z,100.00
2022-09-28T23:07:10.733Z,100.00
2022-09-28T23:17:12.298Z,100.00
2022-09-28T23:27:15.908Z,100.00
2022-09-28T23:37:17.630Z,100.00
2022-09-28T23:47:19.713Z,100.00
2022-09-28T23:57:21.298Z,100.00
